createdAt,value
2017-09-02T00:00:38.735Z,98.70
2017-09-02T00:03:06.300Z,98.40
2017-09-02T00:05:33.828Z,98.60
2017-09-02T00:08:01.363Z,98.60
2017-09-02T00:10:28.899Z,97.90
2017-09-02T00:12:56.528Z,98.40
2017-09-02T00:15:24.058Z,98.20
2017-09-02T00:17:51.618Z,98.10
2017-09-02T00:20:19.212Z,98.40
2017-09-02T00:22:46.777Z,98.70
2017-09-02T00:25:14.331Z,98.50
2017-09-02T00:27:41.895Z,98.70
2017-09-02T00:30:10.251Z,98.90
2017-09-02T00:32:37.784Z,99.00
2017-09-02T00:35:05.322Z,99.10
2017-09-02T00:37:32.875Z,99.00
2017-09-02T00:40:00.430Z,98.90
2017-09-02T00:42:27.898Z,99.20
2017-09-02T00:44:55.455Z,98.90
2017-09-02T00:47:23.004Z,98.70
2017-09-02T00:49:50.566Z,98.60
2017-09-02T00:52:18.083Z,98.60
2017-09-02T00:54:45.651Z,98.60
2017-09-02T00:57:13.214Z,98.70
2017-09-02T00:59:40.767Z,98.90
2017-09-02T01:02:08.288Z,99.00
2017-09-02T01:04:35.857Z,99.00
2017-09-02T01:07:03.370Z,99.00
2017-09-02T01:09:30.926Z,99.00
2017-09-02T01:11:58.470Z,98.80
2017-09-02T01:14:26.009Z,98.80
2017-09-02T01:16:53.570Z,99.00
2017-09-02T01:19:21.125Z,99.10
2017-09-02T01:21:48.630Z,99.00
2017-09-02T01:24:16.212Z,99.10
2017-09-02T01:26:43.771Z,99.00
2017-09-02T01:29:11.294Z,99.40
2017-09-02T01:31:38.829Z,99.30
2017-09-02T01:34:06.410Z,99.50
2017-09-02T01:36:33.938Z,99.40
2017-09-02T01:39:01.506Z,99.30
2017-09-02T01:41:29.047Z,99.90
2017-09-02T01:43:56.633Z,99.60
2017-09-02T01:46:24.207Z,99.60
2017-09-02T01:48:51.777Z,99.40
2017-09-02T01:51:19.341Z,99.30
2017-09-02T01:53:46.889Z,99.60
2017-09-02T01:56:14.436Z,99.50
2017-09-02T01:58:41.981Z,99.40
2017-09-02T02:01:09.473Z,98.90
2017-09-02T02:03:37.012Z,99.10
2017-09-02T02:06:04.527Z,99.30
2017-09-02T02:08:32.073Z,99.30
2017-09-02T02:10:59.794Z,98.90
2017-09-02T02:13:27.333Z,99.10
2017-09-02T02:15:54.871Z,99.20
2017-09-02T02:18:22.366Z,99.40
2017-09-02T02:20:50.666Z,99.30
2017-09-02T02:23:18.179Z,99.30
2017-09-02T02:25:45.698Z,99.30
2017-09-02T02:28:13.268Z,99.30
2017-09-02T02:30:40.767Z,99.20
2017-09-02T02:33:08.256Z,99.20
2017-09-02T02:35:35.781Z,99.40
2017-09-02T02:38:03.328Z,99.60
2017-09-02T02:40:30.886Z,99.80
2017-09-02T02:42:58.411Z,99.50
2017-09-02T02:45:25.960Z,99.50
2017-09-02T02:47:53.511Z,99.80
2017-09-02T02:50:21.060Z,99.80
2017-09-02T02:52:48.602Z,99.90
2017-09-02T02:55:16.147Z,99.70
2017-09-02T02:57:43.678Z,99.50
2017-09-02T03:00:11.220Z,99.60
2017-09-02T03:02:38.723Z,99.80
2017-09-02T03:05:06.248Z,99.70
2017-09-02T03:07:33.793Z,99.90
2017-09-02T03:10:01.334Z,99.90
2017-09-02T03:12:28.870Z,99.90
2017-09-02T03:14:56.417Z,99.60
2017-09-02T03:17:23.948Z,99.50
2017-09-02T03:19:51.502Z,99.70
2017-09-02T03:22:19.066Z,99.60
2017-09-02T03:24:46.614Z,99.60
2017-09-02T03:27:14.169Z,99.50
2017-09-02T03:29:41.713Z,99.40
2017-09-02T03:32:09.201Z,99.60
2017-09-02T03:34:36.758Z,99.60
2017-09-02T03:37:04.340Z,99.80
2017-09-02T03:39:31.913Z,99.90
2017-09-02T03:41:59.468Z,99.80
2017-09-02T03:44:27.011Z,99.80
2017-09-02T03:46:54.575Z,99.70
2017-09-02T03:49:22.132Z,99.90
2017-09-02T03:51:49.642Z,99.90
2017-09-02T03:54:17.147Z,99.90
2017-09-02T03:56:44.689Z,99.90
2017-09-02T03:59:12.235Z,99.90
2017-09-02T04:01:39.798Z,99.90
2017-09-02T04:04:07.923Z,99.90
2017-09-02T04:06:35.468Z,99.90
2017-09-02T04:09:03.017Z,99.90
2017-09-02T04:11:30.523Z,99.90
2017-09-02T04:13:58.091Z,99.90
2017-09-02T04:16:25.656Z,99.90
2017-09-02T04:18:53.210Z,99.90
2017-09-02T04:21:20.738Z,99.90
2017-09-02T04:23:48.321Z,99.90
2017-09-02T04:26:15.813Z,99.90
2017-09-02T04:28:43.384Z,99.90
2017-09-02T04:31:10.922Z,99.90
2017-09-02T04:33:38.898Z,99.90
2017-09-02T04:36:06.460Z,99.90
2017-09-02T04:38:33.970Z,99.90
2017-09-02T04:41:01.509Z,99.90
2017-09-02T04:43:29.076Z,99.90
2017-09-02T04:45:57.636Z,99.90
2017-09-02T04:48:25.177Z,99.90
2017-09-02T04:50:52.689Z,99.90
2017-09-02T04:53:20.205Z,99.90
2017-09-02T04:55:47.754Z,99.90
2017-09-02T04:58:15.270Z,99.90
2017-09-02T05:00:42.848Z,99.90
2017-09-02T05:03:10.405Z,99.90
2017-09-02T05:05:37.942Z,99.90
2017-09-02T05:08:05.485Z,99.90
2017-09-02T05:10:33.067Z,99.90
2017-09-02T05:13:00.551Z,99.70
2017-09-02T05:15:28.120Z,99.60
2017-09-02T05:17:55.654Z,99.60
2017-09-02T05:20:23.195Z,99.40
2017-09-02T05:22:50.748Z,98.40
2017-09-02T05:25:18.270Z,98.30
2017-09-02T05:27:45.839Z,98.30
2017-09-02T05:30:13.399Z,97.50
2017-09-02T05:32:40.972Z,96.20
2017-09-02T05:35:08.552Z,96.00
2017-09-02T05:37:36.101Z,95.40
2017-09-02T05:40:03.670Z,94.90
2017-09-02T05:42:31.214Z,93.90
2017-09-02T05:44:58.774Z,93.40
2017-09-02T05:47:26.346Z,93.50
2017-09-02T05:49:53.941Z,94.00
2017-09-02T05:52:21.452Z,94.60
2017-09-02T05:54:49.079Z,95.10
2017-09-02T05:57:16.582Z,95.80
2017-09-02T05:59:44.126Z,95.60
2017-09-02T06:02:11.732Z,94.90
2017-09-02T06:04:39.327Z,94.70
2017-09-02T06:07:06.857Z,94.40
2017-09-02T06:09:34.405Z,94.50
2017-09-02T06:43:45.243Z,70.10
2017-09-02T06:46:12.768Z,62.70
2017-09-02T06:48:40.344Z,58.40
2017-09-02T06:51:07.883Z,54.40
2017-09-02T06:53:35.443Z,55.10
2017-09-02T06:56:03.027Z,58.50
2017-09-02T06:58:30.589Z,62.70
2017-09-02T07:00:58.131Z,66.60
2017-09-02T07:03:25.682Z,68.10
2017-09-02T07:05:53.224Z,73.10
2017-09-02T07:08:20.771Z,72.10
2017-09-02T07:10:48.600Z,72.00
2017-09-02T07:13:16.095Z,72.70
2017-09-02T07:15:43.755Z,75.40
2017-09-02T07:18:11.307Z,75.30
2017-09-02T07:20:38.873Z,77.10
2017-09-02T07:23:06.403Z,80.10
2017-09-02T07:25:34.311Z,82.20
2017-09-02T07:28:01.841Z,84.10
2017-09-02T07:30:29.366Z,85.20
2017-09-02T07:32:56.945Z,83.30
2017-09-02T07:35:24.489Z,84.10
2017-09-02T07:37:52.062Z,85.00
2017-09-02T07:40:19.568Z,85.90
2017-09-02T07:42:47.222Z,86.20
2017-09-02T07:45:14.727Z,89.10
2017-09-02T07:47:42.288Z,90.00
2017-09-02T07:50:10.768Z,90.60
2017-09-02T07:52:38.307Z,90.90
2017-09-02T07:55:08.575Z,90.40
2017-09-02T07:57:36.127Z,91.20
2017-09-02T08:00:03.686Z,90.60
2017-09-02T08:02:31.241Z,88.80
2017-09-02T08:04:58.795Z,84.20
2017-09-02T08:07:26.362Z,81.90
2017-09-02T08:09:53.933Z,82.90
2017-09-02T08:12:21.492Z,82.20
2017-09-02T08:14:49.039Z,81.40
2017-09-02T08:17:16.639Z,78.90
2017-09-02T08:19:44.201Z,74.90
2017-09-02T08:22:11.764Z,73.60
2017-09-02T08:24:39.343Z,60.80
2017-09-02T08:27:06.897Z,50.30
2017-09-02T08:29:34.495Z,42.20
2017-09-02T08:32:02.054Z,43.80
2017-09-02T08:34:29.591Z,43.10
2017-09-02T08:36:57.169Z,41.90
2017-09-02T08:39:25.292Z,44.90
2017-09-02T08:41:52.840Z,45.70
2017-09-02T08:44:20.376Z,41.60
2017-09-02T08:46:47.927Z,38.20
2017-09-02T08:49:15.482Z,35.70
2017-09-02T08:51:43.039Z,33.20
2017-09-02T08:54:10.630Z,32.00
2017-09-02T08:56:38.411Z,33.60
2017-09-02T08:59:06.008Z,36.10
2017-09-02T09:01:34.237Z,36.50
2017-09-02T09:04:01.859Z,35.80
2017-09-02T09:06:29.422Z,34.20
2017-09-02T09:08:56.970Z,36.50
2017-09-02T09:11:24.510Z,36.50
2017-09-02T09:13:52.086Z,35.50
2017-09-02T09:16:19.619Z,33.50
2017-09-02T09:18:47.247Z,34.90
2017-09-02T09:21:14.787Z,35.00
2017-09-02T09:23:42.324Z,36.10
2017-09-02T09:26:09.874Z,40.50
2017-09-02T09:28:37.430Z,39.60
2017-09-02T09:31:05.084Z,37.40
2017-09-02T09:33:32.687Z,36.30
2017-09-02T09:36:00.265Z,35.70
2017-09-02T09:38:27.805Z,31.80
2017-09-02T09:40:55.335Z,29.00
2017-09-02T09:43:22.955Z,28.20
2017-09-02T09:45:50.528Z,29.50
2017-09-02T09:48:18.027Z,30.60
2017-09-02T09:50:45.578Z,31.20
2017-09-02T09:53:13.364Z,33.00
2017-09-02T09:55:41.884Z,31.20
2017-09-02T09:58:09.438Z,30.60
2017-09-02T10:00:37.281Z,30.20
2017-09-02T10:03:04.829Z,34.00
2017-09-02T10:05:32.408Z,34.00
2017-09-02T10:07:59.933Z,36.00
2017-09-02T10:10:27.977Z,33.10
2017-09-02T10:12:55.489Z,33.60
2017-09-02T10:15:23.031Z,37.50
2017-09-02T10:17:50.591Z,41.40
2017-09-02T10:20:18.152Z,42.30
2017-09-02T10:22:45.816Z,43.70
2017-09-02T10:25:13.394Z,48.20
2017-09-02T10:27:40.993Z,51.90
2017-09-02T10:30:08.558Z,52.30
2017-09-02T10:32:36.100Z,51.60
2017-09-02T10:35:03.723Z,43.70
2017-09-02T10:37:31.472Z,42.20
2017-09-02T10:39:59.042Z,43.50
2017-09-02T10:42:27.369Z,45.50
2017-09-02T10:44:54.915Z,45.40
2017-09-02T10:47:22.483Z,40.10
2017-09-02T10:49:50.087Z,38.30
2017-09-02T10:52:17.626Z,33.60
2017-09-02T10:54:45.191Z,35.80
2017-09-02T10:57:12.723Z,33.60
2017-09-02T10:59:40.216Z,32.90
2017-09-02T11:02:07.785Z,35.70
2017-09-02T11:04:35.349Z,37.10
2017-09-02T11:07:02.898Z,39.10
2017-09-02T11:09:30.497Z,40.60
2017-09-02T11:11:58.124Z,45.00
2017-09-02T11:14:25.710Z,47.40
2017-09-02T11:16:53.279Z,50.20
2017-09-02T11:19:20.945Z,50.50
2017-09-02T11:21:48.545Z,51.90
2017-09-02T11:24:16.099Z,53.50
2017-09-02T11:26:43.654Z,44.40
2017-09-02T11:29:11.222Z,40.20
2017-09-02T11:31:38.813Z,39.10
2017-09-02T11:34:06.467Z,37.10
2017-09-02T11:36:34.410Z,33.90
2017-09-02T11:39:02.045Z,33.70
2017-09-02T11:41:29.974Z,33.90
2017-09-02T11:43:57.813Z,34.10
2017-09-02T11:46:25.347Z,33.00
2017-09-02T11:48:53.003Z,37.10
2017-09-02T11:51:20.556Z,36.10
2017-09-02T11:53:48.124Z,39.50
2017-09-02T11:56:15.742Z,39.50
2017-09-02T11:58:43.449Z,42.10
2017-09-02T12:01:11.143Z,42.80
2017-09-02T12:03:38.691Z,43.20
2017-09-02T12:06:06.445Z,44.20
2017-09-02T12:08:34.812Z,46.50
2017-09-02T12:11:02.546Z,48.10
2017-09-02T12:13:30.355Z,48.60
2017-09-02T12:15:58.053Z,47.50
2017-09-02T12:18:25.581Z,47.70
2017-09-02T12:20:53.211Z,50.70
2017-09-02T12:23:20.807Z,51.00
2017-09-02T12:25:48.383Z,48.00
2017-09-02T12:28:15.936Z,48.80
2017-09-02T12:30:43.470Z,45.50
2017-09-02T12:33:11.057Z,45.30
2017-09-02T12:35:38.664Z,46.00
2017-09-02T12:38:06.232Z,48.20
2017-09-02T12:40:33.885Z,48.60
2017-09-02T12:43:01.478Z,49.80
2017-09-02T12:45:29.071Z,51.50
2017-09-02T12:47:56.626Z,50.20
2017-09-02T12:50:24.211Z,49.70
2017-09-02T12:52:51.765Z,51.30
2017-09-02T12:55:19.335Z,50.10
2017-09-02T12:57:47.602Z,49.50
2017-09-02T13:00:15.161Z,49.40
2017-09-02T13:02:42.699Z,50.50
2017-09-02T13:05:10.311Z,51.60
2017-09-02T13:07:37.888Z,50.70
2017-09-02T13:10:05.660Z,50.60
2017-09-02T13:12:33.221Z,50.70
2017-09-02T13:15:00.836Z,51.00
2017-09-02T13:17:28.386Z,54.30
2017-09-02T13:19:55.942Z,53.50
2017-09-02T13:22:23.564Z,54.80
2017-09-02T13:24:51.095Z,54.50
2017-09-02T13:27:18.642Z,55.30
2017-09-02T13:29:46.138Z,58.00
2017-09-02T13:32:13.713Z,56.10
2017-09-02T13:34:41.326Z,55.00
2017-09-02T13:37:08.872Z,55.20
2017-09-02T13:39:36.459Z,56.50
2017-09-02T13:42:04.039Z,55.30
2017-09-02T13:44:31.601Z,54.10
2017-09-02T13:46:59.196Z,53.10
2017-09-02T13:49:26.696Z,54.40
2017-09-02T13:51:54.269Z,53.50
2017-09-02T13:54:21.833Z,54.60
2017-09-02T13:56:49.353Z,54.40
2017-09-02T13:59:16.979Z,55.60
2017-09-02T14:01:44.554Z,56.30
2017-09-02T14:04:12.239Z,56.10
2017-09-02T14:06:39.822Z,58.10
2017-09-02T14:09:07.387Z,60.10
2017-09-02T14:11:34.978Z,58.50
2017-09-02T14:14:02.938Z,55.90
2017-09-02T14:16:30.509Z,56.30
2017-09-02T14:18:58.105Z,54.80
2017-09-02T14:21:25.652Z,53.40
2017-09-02T14:23:53.803Z,52.90
2017-09-02T14:26:21.460Z,55.00
2017-09-02T14:28:49.051Z,56.30
2017-09-02T14:31:16.611Z,57.50
2017-09-02T14:33:44.179Z,58.50
2017-09-02T14:36:11.811Z,58.90
2017-09-02T14:38:39.347Z,58.00
2017-09-02T14:41:06.967Z,59.00
2017-09-02T14:43:34.535Z,58.40
2017-09-02T14:46:02.127Z,58.30
2017-09-02T14:48:29.673Z,60.80
2017-09-02T14:50:57.257Z,60.30
2017-09-02T14:53:24.816Z,61.10
2017-09-02T14:55:52.339Z,62.70
2017-09-02T14:58:19.939Z,63.90
2017-09-02T15:00:48.320Z,62.20
2017-09-02T15:03:15.945Z,63.50
2017-09-02T15:05:44.340Z,61.50
2017-09-02T15:08:11.907Z,59.90
2017-09-02T15:10:39.494Z,61.20
2017-09-02T15:13:07.082Z,61.40
2017-09-02T15:18:08.527Z,61.50
2017-09-02T15:20:36.061Z,62.60
2017-09-02T15:23:03.662Z,62.30
2017-09-02T15:25:31.217Z,62.20
2017-09-02T15:27:58.785Z,60.70
2017-09-02T15:30:26.415Z,61.70
2017-09-02T15:32:53.985Z,62.70
2017-09-02T15:35:21.572Z,63.20
2017-09-02T15:37:49.084Z,63.10
2017-09-02T15:40:16.654Z,62.00
2017-09-02T15:42:44.215Z,63.40
2017-09-02T15:45:11.748Z,64.10
2017-09-02T15:47:39.289Z,64.40
2017-09-02T15:50:06.907Z,64.80
2017-09-02T15:52:34.451Z,65.80
2017-09-02T15:55:01.985Z,66.40
2017-09-02T15:57:29.536Z,66.80
2017-09-02T15:59:57.093Z,69.00
2017-09-02T16:02:24.662Z,68.30
2017-09-02T16:04:52.248Z,69.10
2017-09-02T16:07:19.819Z,69.30
2017-09-02T16:09:47.350Z,73.90
2017-09-02T16:12:14.888Z,75.70
2017-09-02T16:14:42.434Z,76.20
2017-09-02T16:17:09.987Z,75.30
2017-09-02T16:19:37.557Z,78.40
2017-09-02T16:22:05.181Z,76.60
2017-09-02T16:24:32.755Z,78.60
2017-09-02T16:27:00.312Z,77.30
2017-09-02T16:29:27.910Z,76.80
2017-09-02T16:31:55.483Z,78.10
2017-09-02T16:34:23.034Z,78.80
2017-09-02T16:36:50.592Z,78.10
2017-09-02T16:39:18.097Z,78.60
2017-09-02T16:41:45.702Z,78.80
2017-09-02T16:44:13.226Z,80.10
2017-09-02T16:46:40.811Z,79.90
2017-09-02T16:49:08.379Z,83.50
2017-09-02T16:51:35.872Z,84.40
2017-09-02T16:54:03.502Z,83.80
2017-09-02T16:56:31.061Z,83.80
2017-09-02T16:58:58.601Z,85.90
2017-09-02T17:01:26.150Z,86.00
2017-09-02T17:03:53.698Z,86.80
2017-09-02T17:06:21.282Z,87.20
2017-09-02T17:08:48.832Z,87.10
2017-09-02T17:11:16.340Z,87.10
2017-09-02T17:13:43.854Z,86.60
2017-09-02T17:16:11.382Z,88.40
2017-09-02T17:18:38.978Z,88.90
2017-09-02T17:21:06.539Z,89.20
2017-09-02T17:23:34.915Z,88.70
2017-09-02T17:26:02.499Z,88.70
2017-09-02T17:28:30.041Z,88.50
2017-09-02T17:30:57.593Z,90.20
2017-09-02T17:33:25.188Z,90.20
2017-09-02T17:35:52.741Z,90.10
2017-09-02T17:38:20.279Z,89.70
2017-09-02T17:40:47.909Z,90.10
2017-09-02T17:43:15.456Z,90.50
2017-09-02T17:45:43.087Z,90.70
2017-09-02T17:48:10.667Z,90.80
2017-09-02T17:50:38.203Z,91.10
2017-09-02T17:53:05.788Z,90.90
2017-09-02T17:55:33.392Z,90.80
2017-09-02T17:58:00.951Z,90.70
2017-09-02T18:00:28.590Z,90.30
2017-09-02T18:02:56.186Z,90.70
2017-09-02T18:05:23.769Z,90.80
2017-09-02T18:07:51.407Z,90.40
2017-09-02T18:10:18.971Z,90.50
2017-09-02T18:12:46.493Z,90.80
2017-09-02T18:15:14.038Z,90.80
2017-09-02T18:17:41.641Z,91.10
2017-09-02T18:20:09.208Z,90.80
2017-09-02T18:22:36.928Z,90.90
2017-09-02T18:25:04.707Z,91.90
2017-09-02T18:27:32.283Z,92.20
2017-09-02T18:30:00.012Z,92.40
2017-09-02T18:32:27.601Z,92.20
2017-09-02T18:34:55.166Z,92.50
2017-09-02T18:37:23.534Z,93.00
2017-09-02T18:39:51.138Z,92.90
2017-09-02T18:42:18.657Z,93.20
2017-09-02T18:44:46.210Z,93.60
2017-09-02T18:47:13.798Z,93.80
2017-09-02T18:49:41.378Z,94.10
2017-09-02T18:52:10.406Z,94.30
2017-09-02T18:54:38.062Z,94.90
2017-09-02T18:57:05.783Z,95.00
2017-09-02T18:59:33.372Z,95.00
2017-09-02T19:02:00.927Z,95.10
2017-09-02T19:04:28.507Z,95.30
2017-09-02T19:06:56.096Z,95.50
2017-09-02T19:09:23.788Z,95.70
2017-09-02T19:11:51.402Z,95.70
2017-09-02T19:14:20.511Z,95.60
2017-09-02T19:16:48.110Z,95.70
2017-09-02T19:19:16.586Z,95.60
2017-09-02T19:21:44.171Z,95.80
2017-09-02T19:24:11.732Z,96.00
2017-09-02T19:26:40.259Z,95.80
2017-09-02T19:29:07.877Z,95.80
2017-09-02T19:31:35.566Z,96.20
2017-09-02T19:34:03.209Z,95.70
2017-09-02T19:36:30.798Z,95.70
2017-09-02T19:38:58.359Z,95.50
2017-09-02T19:41:25.888Z,95.90
2017-09-02T19:43:53.474Z,95.40
2017-09-02T19:46:21.046Z,95.30
2017-09-02T19:48:48.600Z,95.20
2017-09-02T19:51:16.187Z,95.60
2017-09-02T19:53:43.764Z,96.00
2017-09-02T19:56:11.368Z,96.10
2017-09-02T19:58:39.551Z,96.40
2017-09-02T20:01:07.131Z,96.50
2017-09-02T20:03:34.726Z,96.70
2017-09-02T20:06:02.392Z,97.00
2017-09-02T20:08:29.959Z,96.80
2017-09-02T20:10:57.515Z,96.80
2017-09-02T20:13:25.152Z,96.90
2017-09-02T20:15:52.744Z,96.90
2017-09-02T20:18:20.327Z,97.30
2017-09-02T20:20:47.871Z,97.10
2017-09-02T20:23:15.532Z,97.20
2017-09-02T20:25:43.078Z,97.30
2017-09-02T20:28:10.650Z,97.00
2017-09-02T20:30:38.216Z,97.00
2017-09-02T20:33:06.619Z,96.60
2017-09-02T20:35:34.179Z,96.60
2017-09-02T20:38:01.738Z,96.10
2017-09-02T20:40:29.227Z,96.20
2017-09-02T20:42:56.776Z,96.70
2017-09-02T20:45:24.372Z,96.60
2017-09-02T20:47:51.978Z,96.80
2017-09-02T20:50:19.458Z,96.70
2017-09-02T20:52:47.036Z,96.60
2017-09-02T20:55:14.612Z,96.90
2017-09-02T20:57:42.180Z,96.90
2017-09-02T21:00:09.786Z,96.80
2017-09-02T21:02:37.386Z,96.80
2017-09-02T21:05:04.951Z,96.90
2017-09-02T21:07:32.540Z,97.10
2017-09-02T21:10:00.099Z,96.90
2017-09-02T21:12:27.685Z,97.10
2017-09-02T21:14:55.247Z,96.80
2017-09-02T21:17:22.802Z,97.10
2017-09-02T21:19:50.361Z,96.90
2017-09-02T21:22:17.898Z,97.10
2017-09-02T21:24:45.615Z,96.80
2017-09-02T21:27:13.190Z,96.70
2017-09-02T21:29:40.750Z,96.60
2017-09-02T21:32:08.330Z,96.30
2017-09-02T21:34:35.831Z,96.20
2017-09-02T21:37:03.462Z,95.70
2017-09-02T21:39:31.011Z,95.70
2017-09-02T21:41:58.576Z,95.50
2017-09-02T21:44:26.157Z,94.80
2017-09-02T21:46:53.743Z,94.70
2017-09-02T21:49:21.281Z,94.90
2017-09-02T21:51:48.835Z,94.40
2017-09-02T21:54:16.373Z,94.70
2017-09-02T21:56:43.981Z,94.10
2017-09-02T21:59:11.521Z,94.30
2017-09-02T22:01:40.255Z,94.10
2017-09-02T22:04:08.431Z,94.20
2017-09-02T22:06:36.960Z,94.40
2017-09-02T22:09:04.516Z,94.10
2017-09-02T22:11:32.101Z,94.10
2017-09-02T22:14:00.344Z,94.20
2017-09-02T22:16:27.940Z,94.00
2017-09-02T22:18:55.498Z,94.30
2017-09-02T22:21:23.698Z,94.50
2017-09-02T22:23:51.253Z,94.40
2017-09-02T22:26:18.814Z,94.80
2017-09-02T22:28:46.370Z,94.40
2017-09-02T22:31:14.359Z,94.70
2017-09-02T22:33:42.185Z,94.50
2017-09-02T22:36:09.708Z,94.90
2017-09-02T22:38:37.301Z,94.90
2017-09-02T22:41:04.897Z,95.00
2017-09-02T22:43:33.409Z,95.10
2017-09-02T22:46:02.101Z,95.30
2017-09-02T22:48:29.686Z,95.40
2017-09-02T22:50:57.225Z,96.00
2017-09-02T22:53:24.755Z,95.30
2017-09-02T22:55:52.341Z,95.40
2017-09-02T22:58:20.303Z,95.50
2017-09-02T23:00:47.864Z,95.70
2017-09-02T23:03:15.419Z,95.90
2017-09-02T23:05:42.991Z,96.00
2017-09-02T23:08:10.570Z,96.10
2017-09-02T23:10:38.165Z,95.90
2017-09-02T23:13:06.155Z,95.90
2017-09-02T23:15:33.938Z,96.00
2017-09-02T23:18:01.837Z,96.10
2017-09-02T23:20:29.397Z,95.80
2017-09-02T23:22:56.937Z,95.90
2017-09-02T23:25:24.419Z,96.00
2017-09-02T23:27:51.985Z,95.70
2017-09-02T23:30:19.521Z,95.80
2017-09-02T23:32:47.080Z,95.80
2017-09-02T23:35:15.078Z,95.80
2017-09-02T23:37:42.629Z,96.10
2017-09-02T23:40:10.171Z,96.40
2017-09-02T23:42:37.733Z,96.70
2017-09-02T23:45:05.261Z,96.70
2017-09-02T23:47:33.141Z,96.90
2017-09-02T23:50:00.683Z,96.60
2017-09-02T23:52:28.248Z,96.60
2017-09-02T23:54:55.879Z,96.80
2017-09-02T23:57:23.423Z,97.10
2017-09-02T23:59:51.029Z,96.90
